sensor_id;sensor_type;location;lat;lon;timestamp;pressure;altitude;pressure_sealevel;temperature;humidity
18749;BME280;9503;53.560;10.246;2023-06-19T00:01:39;100586.13;;;25.46;57.15
18749;BME280;9503;53.560;10.246;2023-06-19T00:04:05;100591.97;;;25.65;56.87
18749;BME280;9503;53.560;10.246;2023-06-19T00:06:32;100586.03;;;25.52;56.56
18749;BME280;9503;53.560;10.246;2023-06-19T00:08:58;100592.88;;;25.64;56.14
18749;BME280;9503;53.560;10.246;2023-06-19T00:11:26;100586.69;;;25.67;56.48
18749;BME280;9503;53.560;10.246;2023-06-19T00:13:53;100596.63;;;25.46;57.08
18749;BME280;9503;53.560;10.246;2023-06-19T00:16:19;100581.41;;;25.10;57.63
18749;BME280;9503;53.560;10.246;2023-06-19T00:18:46;100579.50;;;25.22;57.85
18749;BME280;9503;53.560;10.246;2023-06-19T00:21:13;100573.81;;;25.51;56.89
18749;BME280;9503;53.560;10.246;2023-06-19T00:23:40;100575.81;;;25.35;57.09
18749;BME280;9503;53.560;10.246;2023-06-19T00:26:06;100571.41;;;25.38;57.52
18749;BME280;9503;53.560;10.246;2023-06-19T00:28:34;100574.84;;;25.40;57.08
18749;BME280;9503;53.560;10.246;2023-06-19T00:31:04;100570.81;;;25.17;57.74
18749;BME280;9503;53.560;10.246;2023-06-19T00:33:32;100573.03;;;25.45;56.86
18749;BME280;9503;53.560;10.246;2023-06-19T00:35:58;100570.16;;;25.60;56.93
18749;BME280;9503;53.560;10.246;2023-06-19T00:38:26;100571.34;;;25.42;57.26
18749;BME280;9503;53.560;10.246;2023-06-19T00:40:53;100569.91;;;25.21;58.01
18749;BME280;9503;53.560;10.246;2023-06-19T00:43:19;100568.84;;;25.34;57.80
18749;BME280;9503;53.560;10.246;2023-06-19T00:45:47;100564.31;;;25.41;57.61
18749;BME280;9503;53.560;10.246;2023-06-19T00:48:15;100564.31;;;25.43;57.65
18749;BME280;9503;53.560;10.246;2023-06-19T00:50:41;100567.47;;;25.65;57.04
18749;BME280;9503;53.560;10.246;2023-06-19T00:53:08;100573.63;;;25.62;56.96
18749;BME280;9503;53.560;10.246;2023-06-19T00:55:36;100574.16;;;25.28;57.67
18749;BME280;9503;53.560;10.246;2023-06-19T00:58:03;100571.94;;;25.59;57.27
18749;BME280;9503;53.560;10.246;2023-06-19T01:00:30;100562.38;;;25.54;57.25
18749;BME280;9503;53.560;10.246;2023-06-19T01:02:58;100562.38;;;25.54;57.28
18749;BME280;9503;53.560;10.246;2023-06-19T01:05:25;100557.19;;;25.51;57.57
18749;BME280;9503;53.560;10.246;2023-06-19T01:07:55;100552.50;;;25.14;58.33
18749;BME280;9503;53.560;10.246;2023-06-19T01:10:28;100539.59;;;24.96;59.07
18749;BME280;9503;53.560;10.246;2023-06-19T01:12:58;100531.72;;;24.96;59.03
18749;BME280;9503;53.560;10.246;2023-06-19T01:15:27;100529.34;;;24.79;59.19
18749;BME280;9503;53.560;10.246;2023-06-19T01:17:55;100529.97;;;24.96;59.00
18749;BME280;9503;53.560;10.246;2023-06-19T01:20:23;100519.16;;;25.21;58.33
18749;BME280;9503;53.560;10.246;2023-06-19T01:22:51;100520.75;;;25.31;57.86
18749;BME280;9503;53.560;10.246;2023-06-19T01:25:22;100510.22;;;25.32;57.82
18749;BME280;9503;53.560;10.246;2023-06-19T01:27:49;100508.91;;;25.04;58.81
18749;BME280;9503;53.560;10.246;2023-06-19T01:30:16;100498.13;;;25.22;58.34
18749;BME280;9503;53.560;10.246;2023-06-19T01:32:48;100495.56;;;25.70;56.96
18749;BME280;9503;53.560;10.246;2023-06-19T01:35:19;100504.50;;;25.60;57.26
18749;BME280;9503;53.560;10.246;2023-06-19T01:37:49;100504.38;;;25.15;58.61
18749;BME280;9503;53.560;10.246;2023-06-19T01:40:18;100503.75;;;25.53;57.31
18749;BME280;9503;53.560;10.246;2023-06-19T01:42:47;100500.31;;;25.50;57.56
18749;BME280;9503;53.560;10.246;2023-06-19T01:45:14;100496.19;;;25.33;58.09
18749;BME280;9503;53.560;10.246;2023-06-19T01:47:40;100492.16;;;25.14;58.63
18749;BME280;9503;53.560;10.246;2023-06-19T01:50:08;100496.19;;;25.33;57.75
18749;BME280;9503;53.560;10.246;2023-06-19T01:52:36;100485.56;;;25.43;57.58
18749;BME280;9503;53.560;10.246;2023-06-19T01:55:03;100484.41;;;25.02;58.55
18749;BME280;9503;53.560;10.246;2023-06-19T01:57:31;100484.47;;;24.99;59.01
18749;BME280;9503;53.560;10.246;2023-06-19T01:59:58;100498.41;;;25.05;58.46
18749;BME280;9503;53.560;10.246;2023-06-19T02:02:25;100492.03;;;25.22;57.99
18749;BME280;9503;53.560;10.246;2023-06-19T02:04:51;100491.69;;;25.43;57.58
18749;BME280;9503;53.560;10.246;2023-06-19T02:07:18;100501.13;;;24.98;58.92
18749;BME280;9503;53.560;10.246;2023-06-19T02:09:44;100491.75;;;24.78;59.03
18749;BME280;9503;53.560;10.246;2023-06-19T02:12:11;100493.19;;;25.01;58.95
18749;BME280;9503;53.560;10.246;2023-06-19T02:14:39;100489.75;;;24.97;58.57
18749;BME280;9503;53.560;10.246;2023-06-19T02:17:06;100491.19;;;25.18;58.20
18749;BME280;9503;53.560;10.246;2023-06-19T02:19:33;100486.72;;;25.25;58.06
18749;BME280;9503;53.560;10.246;2023-06-19T02:21:59;100490.53;;;25.05;58.55
18749;BME280;9503;53.560;10.246;2023-06-19T02:24:26;100478.88;;;25.23;58.45
18749;BME280;9503;53.560;10.246;2023-06-19T02:26:52;100484.34;;;25.10;58.68
18749;BME280;9503;53.560;10.246;2023-06-19T02:29:19;100476.47;;;25.10;58.79
18749;BME280;9503;53.560;10.246;2023-06-19T02:31:47;100467.16;;;25.44;57.52
18749;BME280;9503;53.560;10.246;2023-06-19T02:34:15;100468.09;;;24.81;58.48
18749;BME280;9503;53.560;10.246;2023-06-19T02:36:41;100469.97;;;24.73;59.16
18749;BME280;9503;53.560;10.246;2023-06-19T02:39:08;100472.13;;;25.07;58.68
18749;BME280;9503;53.560;10.246;2023-06-19T02:41:35;100478.69;;;25.35;58.06
18749;BME280;9503;53.560;10.246;2023-06-19T02:44:03;100478.63;;;25.39;58.15
18749;BME280;9503;53.560;10.246;2023-06-19T02:46:30;100483.50;;;25.60;57.67
18749;BME280;9503;53.560;10.246;2023-06-19T02:48:58;100478.59;;;25.42;57.54
18749;BME280;9503;53.560;10.246;2023-06-19T02:51:26;100478.78;;;25.29;57.99
18749;BME280;9503;53.560;10.246;2023-06-19T02:53:52;100471.38;;;25.53;56.93
18749;BME280;9503;53.560;10.246;2023-06-19T02:56:19;100476.53;;;25.06;58.51
18749;BME280;9503;53.560;10.246;2023-06-19T02:58:45;100467.13;;;24.89;57.96
18749;BME280;9503;53.560;10.246;2023-06-19T03:01:12;100476.72;;;25.47;57.47
18749;BME280;9503;53.560;10.246;2023-06-19T03:03:39;100476.34;;;25.68;56.65
18749;BME280;9503;53.560;10.246;2023-06-19T03:06:08;100473.53;;;25.29;57.20
18749;BME280;9503;53.560;10.246;2023-06-19T03:08:34;100465.63;;;25.82;55.95
18749;BME280;9503;53.560;10.246;2023-06-19T03:11:02;100462.44;;;25.63;56.78
18749;BME280;9503;53.560;10.246;2023-06-19T03:13:29;100464.66;;;25.87;56.30
18749;BME280;9503;53.560;10.246;2023-06-19T03:15:56;100463.81;;;25.33;57.81
18749;BME280;9503;53.560;10.246;2023-06-19T03:18:22;100452.75;;;25.67;56.93
18749;BME280;9503;53.560;10.246;2023-06-19T03:20:49;100452.41;;;25.86;56.31
18749;BME280;9503;53.560;10.246;2023-06-19T03:23:17;100463.84;;;25.31;57.34
18749;BME280;9503;53.560;10.246;2023-06-19T03:25:43;100456.16;;;25.73;56.53
18749;BME280;9503;53.560;10.246;2023-06-19T03:28:10;100460.22;;;25.40;56.77
18749;BME280;9503;53.560;10.246;2023-06-19T03:30:36;100447.94;;;25.41;57.27
18749;BME280;9503;53.560;10.246;2023-06-19T03:33:03;100440.91;;;25.44;57.07
18749;BME280;9503;53.560;10.246;2023-06-19T03:35:30;100439.22;;;25.42;56.89
18749;BME280;9503;53.560;10.246;2023-06-19T03:37:56;100451.97;;;25.61;56.67
18749;BME280;9503;53.560;10.246;2023-06-19T03:40:24;100448.00;;;25.88;56.34
18749;BME280;9503;53.560;10.246;2023-06-19T03:42:51;100449.94;;;25.77;55.88
18749;BME280;9503;53.560;10.246;2023-06-19T03:45:17;100449.19;;;25.72;56.22
18749;BME280;9503;53.560;10.246;2023-06-19T03:47:44;100446.94;;;25.48;56.64
18749;BME280;9503;53.560;10.246;2023-06-19T03:50:11;100446.66;;;25.65;56.47
18749;BME280;9503;53.560;10.246;2023-06-19T03:52:37;100444.81;;;25.73;56.30
18749;BME280;9503;53.560;10.246;2023-06-19T03:55:05;100441.34;;;25.68;56.62
18749;BME280;9503;53.560;10.246;2023-06-19T03:57:33;100431.09;;;25.54;56.95
18749;BME280;9503;53.560;10.246;2023-06-19T03:59:59;100437.66;;;25.79;56.11
18749;BME280;9503;53.560;10.246;2023-06-19T04:02:26;100428.13;;;25.74;56.37
18749;BME280;9503;53.560;10.246;2023-06-19T04:04:53;100430.03;;;25.64;56.81
18749;BME280;9503;53.560;10.246;2023-06-19T04:07:19;100429.78;;;25.79;56.01
18749;BME280;9503;53.560;10.246;2023-06-19T04:09:46;100422.41;;;25.50;56.52
18749;BME280;9503;53.560;10.246;2023-06-19T04:12:12;100429.91;;;25.70;56.73
18749;BME280;9503;53.560;10.246;2023-06-19T04:14:40;100429.53;;;25.92;56.13
18749;BME280;9503;53.560;10.246;2023-06-19T04:17:07;100422.50;;;25.46;57.00
18749;BME280;9503;53.560;10.246;2023-06-19T04:19:34;100418.78;;;26.04;55.90
18749;BME280;9503;53.560;10.246;2023-06-19T04:22:00;100416.31;;;25.48;56.88
18749;BME280;9503;53.560;10.246;2023-06-19T04:24:27;100414.22;;;25.67;56.53
18749;BME280;9503;53.560;10.246;2023-06-19T04:26:53;100413.03;;;25.85;56.79
18749;BME280;9503;53.560;10.246;2023-06-19T04:29:20;100420.66;;;25.97;56.18
18749;BME280;9503;53.560;10.246;2023-06-19T04:31:48;100436.41;;;25.99;56.03
18749;BME280;9503;53.560;10.246;2023-06-19T04:34:16;100435.25;;;26.12;56.06
18749;BME280;9503;53.560;10.246;2023-06-19T04:36:46;100436.59;;;25.89;56.63
18749;BME280;9503;53.560;10.246;2023-06-19T04:39:12;100442.84;;;25.82;56.55
18749;BME280;9503;53.560;10.246;2023-06-19T04:41:40;100444.25;;;25.52;57.22
18749;BME280;9503;53.560;10.246;2023-06-19T04:44:07;100444.25;;;26.02;56.46
18749;BME280;9503;53.560;10.246;2023-06-19T04:46:34;100442.00;;;25.82;56.48
18749;BME280;9503;53.560;10.246;2023-06-19T04:49:04;100445.38;;;25.38;57.56
18749;BME280;9503;53.560;10.246;2023-06-19T04:51:31;100441.72;;;25.46;57.85
18749;BME280;9503;53.560;10.246;2023-06-19T04:53:58;100449.22;;;26.14;56.53
18749;BME280;9503;53.560;10.246;2023-06-19T04:56:24;100441.91;;;26.30;55.90
18749;BME280;9503;53.560;10.246;2023-06-19T04:58:51;100446.09;;;26.38;55.67
18749;BME280;9503;53.560;10.246;2023-06-19T05:01:21;100433.88;;;25.94;56.67
18749;BME280;9503;53.560;10.246;2023-06-19T05:03:54;100436.72;;;25.32;57.38
18749;BME280;9503;53.560;10.246;2023-06-19T05:06:22;100429.03;;;25.71;57.28
18749;BME280;9503;53.560;10.246;2023-06-19T05:08:49;100437.03;;;25.65;57.72
18749;BME280;9503;53.560;10.246;2023-06-19T05:11:15;100427.00;;;24.84;59.49
18749;BME280;9503;53.560;10.246;2023-06-19T05:13:42;100425.81;;;25.04;59.32
18749;BME280;9503;53.560;10.246;2023-06-19T05:16:09;100427.22;;;25.25;58.35
18749;BME280;9503;53.560;10.246;2023-06-19T05:18:35;100421.69;;;25.41;57.79
18749;BME280;9503;53.560;10.246;2023-06-19T05:21:02;100423.94;;;25.13;58.68
18749;BME280;9503;53.560;10.246;2023-06-19T05:23:30;100429.41;;;24.96;58.88
18749;BME280;9503;53.560;10.246;2023-06-19T05:25:57;100426.81;;;25.96;57.05
18749;BME280;9503;53.560;10.246;2023-06-19T05:28:23;100430.81;;;26.15;56.66
18749;BME280;9503;53.560;10.246;2023-06-19T05:30:50;100434.16;;;25.29;57.78
18749;BME280;9503;53.560;10.246;2023-06-19T05:33:16;100431.84;;;25.10;58.54
18749;BME280;9503;53.560;10.246;2023-06-19T05:35:43;100426.13;;;25.39;58.42
18749;BME280;9503;53.560;10.246;2023-06-19T05:38:16;100425.31;;;24.79;59.56
18749;BME280;9503;53.560;10.246;2023-06-19T05:40:44;100423.47;;;24.85;60.18
18749;BME280;9503;53.560;10.246;2023-06-19T05:43:11;100420.56;;;25.57;58.07
18749;BME280;9503;53.560;10.246;2023-06-19T05:45:38;100423.25;;;25.99;57.12
18749;BME280;9503;53.560;10.246;2023-06-19T05:48:04;100427.31;;;25.69;57.70
18749;BME280;9503;53.560;10.246;2023-06-19T05:50:31;100427.47;;;25.61;57.37
18749;BME280;9503;53.560;10.246;2023-06-19T05:52:57;100439.06;;;25.97;57.24
18749;BME280;9503;53.560;10.246;2023-06-19T05:55:24;100438.56;;;26.23;55.87
18749;BME280;9503;53.560;10.246;2023-06-19T05:57:53;100434.31;;;26.14;56.50
18749;BME280;9503;53.560;10.246;2023-06-19T06:00:20;100449.00;;;26.26;56.40
18749;BME280;9503;53.560;10.246;2023-06-19T06:02:47;100450.72;;;26.27;56.11
18749;BME280;9503;53.560;10.246;2023-06-19T06:05:16;100451.59;;;26.69;55.31
18749;BME280;9503;53.560;10.246;2023-06-19T06:07:44;100462.13;;;26.69;54.89
18749;BME280;9503;53.560;10.246;2023-06-19T06:10:11;100468.53;;;26.95;54.87
18749;BME280;9503;53.560;10.246;2023-06-19T06:12:37;100469.09;;;27.11;54.63
18749;BME280;9503;53.560;10.246;2023-06-19T06:15:06;100477.63;;;27.20;54.17
18749;BME280;9503;53.560;10.246;2023-06-19T06:17:33;100476.13;;;27.10;54.63
18749;BME280;9503;53.560;10.246;2023-06-19T06:20:00;100484.41;;;27.29;54.26
18749;BME280;9503;53.560;10.246;2023-06-19T06:22:26;100484.63;;;27.21;54.24
18749;BME280;9503;53.560;10.246;2023-06-19T06:24:53;100484.69;;;27.52;53.99
18749;BME280;9503;53.560;10.246;2023-06-19T06:27:19;100485.38;;;27.26;54.05
18749;BME280;9503;53.560;10.246;2023-06-19T06:29:46;100483.72;;;26.84;55.27
18749;BME280;9503;53.560;10.246;2023-06-19T06:32:14;100483.06;;;27.48;54.06
18749;BME280;9503;53.560;10.246;2023-06-19T06:34:40;100485.09;;;27.00;54.40
18749;BME280;9503;53.560;10.246;2023-06-19T06:37:07;100485.34;;;27.62;53.86
18749;BME280;9503;53.560;10.246;2023-06-19T06:39:34;100484.47;;;27.96;53.31
18749;BME280;9503;53.560;10.246;2023-06-19T06:42:00;100485.00;;;28.08;52.87
18749;BME280;9503;53.560;10.246;2023-06-19T06:44:27;100484.34;;;28.00;53.09
18749;BME280;9503;53.560;10.246;2023-06-19T06:46:54;100485.75;;;27.81;53.71
18749;BME280;9503;53.560;10.246;2023-06-19T06:49:22;100479.09;;;27.66;54.08
18749;BME280;9503;53.560;10.246;2023-06-19T06:51:48;100481.69;;;27.69;53.65
18749;BME280;9503;53.560;10.246;2023-06-19T06:54:15;100482.53;;;28.02;53.93
18749;BME280;9503;53.560;10.246;2023-06-19T06:56:42;100478.19;;;28.32;53.44
18749;BME280;9503;53.560;10.246;2023-06-19T06:59:13;100471.06;;;28.03;53.97
18749;BME280;9503;53.560;10.246;2023-06-19T07:01:41;100471.63;;;27.14;55.74
18749;BME280;9503;53.560;10.246;2023-06-19T07:04:07;100462.53;;;27.61;56.57
18749;BME280;9503;53.560;10.246;2023-06-19T07:06:35;100463.09;;;27.74;56.44
18749;BME280;9503;53.560;10.246;2023-06-19T07:09:02;100458.56;;;27.45;57.06
18749;BME280;9503;53.560;10.246;2023-06-19T07:11:29;100463.66;;;27.17;56.64
18749;BME280;9503;53.560;10.246;2023-06-19T07:13:55;100471.53;;;27.52;56.28
18749;BME280;9503;53.560;10.246;2023-06-19T07:16:22;100477.88;;;27.45;56.60
18749;BME280;9503;53.560;10.246;2023-06-19T07:18:48;100467.03;;;27.58;56.12
18749;BME280;9503;53.560;10.246;2023-06-19T07:21:15;100459.63;;;27.00;57.23
18749;BME280;9503;53.560;10.246;2023-06-19T07:23:45;100446.28;;;26.29;59.25
18749;BME280;9503;53.560;10.246;2023-06-19T07:26:13;100430.47;;;25.40;61.25
18749;BME280;9503;53.560;10.246;2023-06-19T07:28:40;100434.84;;;26.72;58.80
18749;BME280;9503;53.560;10.246;2023-06-19T07:31:07;100442.19;;;26.96;57.08
18749;BME280;9503;53.560;10.246;2023-06-19T07:33:33;100455.06;;;27.10;57.50
18749;BME280;9503;53.560;10.246;2023-06-19T07:36:01;100460.47;;;27.74;55.92
18749;BME280;9503;53.560;10.246;2023-06-19T07:38:28;100454.38;;;27.72;55.23
18749;BME280;9503;53.560;10.246;2023-06-19T07:40:56;100465.91;;;28.00;54.96
18749;BME280;9503;53.560;10.246;2023-06-19T07:43:22;100467.94;;;28.22;54.59
18749;BME280;9503;53.560;10.246;2023-06-19T07:45:49;100471.88;;;28.38;54.19
18749;BME280;9503;53.560;10.246;2023-06-19T07:48:15;100470.63;;;28.19;54.75
18749;BME280;9503;53.560;10.246;2023-06-19T07:50:42;100474.75;;;28.29;55.17
18749;BME280;9503;53.560;10.246;2023-06-19T07:53:09;100475.38;;;28.39;54.03
18749;BME280;9503;53.560;10.246;2023-06-19T07:55:36;100477.75;;;28.17;54.63
18749;BME280;9503;53.560;10.246;2023-06-19T07:58:04;100478.97;;;27.72;55.23
18749;BME280;9503;53.560;10.246;2023-06-19T08:00:30;100474.41;;;28.41;54.61
18749;BME280;9503;53.560;10.246;2023-06-19T08:02:57;100474.19;;;28.18;54.77
18749;BME280;9503;53.560;10.246;2023-06-19T08:05:24;100483.16;;;28.43;54.65
18749;BME280;9503;53.560;10.246;2023-06-19T08:07:50;100490.28;;;28.99;53.44
18749;BME280;9503;53.560;10.246;2023-06-19T08:10:17;100492.69;;;29.06;52.83
18749;BME280;9503;53.560;10.246;2023-06-19T08:12:44;100489.72;;;29.17;53.10
18749;BME280;9503;53.560;10.246;2023-06-19T08:15:12;100484.41;;;29.43;52.90
18749;BME280;9503;53.560;10.246;2023-06-19T08:17:39;100488.41;;;30.07;51.23
18749;BME280;9503;53.560;10.246;2023-06-19T08:20:07;100492.66;;;30.59;50.85
18749;BME280;9503;53.560;10.246;2023-06-19T08:22:35;100485.41;;;30.17;51.60
18749;BME280;9503;53.560;10.246;2023-06-19T08:25:02;100486.91;;;30.24;51.05
18749;BME280;9503;53.560;10.246;2023-06-19T08:27:28;100486.78;;;30.74;49.95
18749;BME280;9503;53.560;10.246;2023-06-19T08:29:55;100490.47;;;31.38;48.96
18749;BME280;9503;53.560;10.246;2023-06-19T08:32:23;100486.00;;;31.80;48.73
18749;BME280;9503;53.560;10.246;2023-06-19T08:34:50;100478.25;;;32.15;48.07
18749;BME280;9503;53.560;10.246;2023-06-19T08:37:17;100486.06;;;32.38;47.16
18749;BME280;9503;53.560;10.246;2023-06-19T08:39:44;100486.59;;;32.83;46.47
18749;BME280;9503;53.560;10.246;2023-06-19T08:42:10;100488.22;;;33.06;46.32
18749;BME280;9503;53.560;10.246;2023-06-19T08:44:37;100481.91;;;32.89;46.54
18749;BME280;9503;53.560;10.246;2023-06-19T08:47:05;100475.22;;;32.99;46.74
18749;BME280;9503;53.560;10.246;2023-06-19T08:49:34;100480.91;;;32.92;46.66
18749;BME280;9503;53.560;10.246;2023-06-19T08:52:01;100467.13;;;32.65;46.88
18749;BME280;9503;53.560;10.246;2023-06-19T08:54:27;100472.22;;;32.88;46.78
18749;BME280;9503;53.560;10.246;2023-06-19T08:56:54;100474.09;;;33.22;46.17
18749;BME280;9503;53.560;10.246;2023-06-19T08:59:21;100472.53;;;33.36;45.94
18749;BME280;9503;53.560;10.246;2023-06-19T09:01:49;100477.44;;;33.26;46.47
18749;BME280;9503;53.560;10.246;2023-06-19T09:04:20;100482.19;;;33.19;46.49
18749;BME280;9503;53.560;10.246;2023-06-19T09:06:50;100487.25;;;33.60;45.79
18749;BME280;9503;53.560;10.246;2023-06-19T09:09:18;100477.63;;;33.75;45.72
18749;BME280;9503;53.560;10.246;2023-06-19T09:11:57;100478.81;;;33.87;45.96
18749;BME280;9503;53.560;10.246;2023-06-19T09:14:24;100478.97;;;34.66;44.34
18749;BME280;9503;53.560;10.246;2023-06-19T09:16:57;100479.16;;;34.47;45.29
18749;BME280;9503;53.560;10.246;2023-06-19T09:19:23;100480.00;;;34.79;44.48
18749;BME280;9503;53.560;10.246;2023-06-19T09:21:51;100476.91;;;34.86;43.71
18749;BME280;9503;53.560;10.246;2023-06-19T09:24:18;100473.13;;;34.43;45.10
18749;BME280;9503;53.560;10.246;2023-06-19T09:26:44;100465.06;;;35.08;43.94
18749;BME280;9503;53.560;10.246;2023-06-19T09:29:12;100468.31;;;34.66;44.45
18749;BME280;9503;53.560;10.246;2023-06-19T09:31:41;100461.00;;;35.16;44.47
18749;BME280;9503;53.560;10.246;2023-06-19T09:34:08;100465.84;;;35.84;43.53
18749;BME280;9503;53.560;10.246;2023-06-19T09:36:35;100466.13;;;35.80;43.23
18749;BME280;9503;53.560;10.246;2023-06-19T09:39:03;100465.22;;;34.57;43.95
18749;BME280;9503;53.560;10.246;2023-06-19T09:41:30;100468.50;;;34.62;44.60
18749;BME280;9503;53.560;10.246;2023-06-19T09:43:58;100461.28;;;34.65;44.00
18749;BME280;9503;53.560;10.246;2023-06-19T09:46:28;100460.19;;;34.20;44.12
18749;BME280;9503;53.560;10.246;2023-06-19T09:48:59;100459.75;;;34.76;43.59
18749;BME280;9503;53.560;10.246;2023-06-19T09:51:30;100468.25;;;35.44;42.92
18749;BME280;9503;53.560;10.246;2023-06-19T09:53:57;100461.88;;;35.91;41.98
18749;BME280;9503;53.560;10.246;2023-06-19T09:56:27;100460.38;;;35.27;42.46
18749;BME280;9503;53.560;10.246;2023-06-19T09:58:56;100465.84;;;35.70;42.55
18749;BME280;9503;53.560;10.246;2023-06-19T10:01:25;100462.50;;;34.75;43.32
18749;BME280;9503;53.560;10.246;2023-06-19T10:04:02;100467.50;;;34.97;42.62
18749;BME280;9503;53.560;10.246;2023-06-19T10:06:29;100469.72;;;35.04;42.50
18749;BME280;9503;53.560;10.246;2023-06-19T10:09:05;100467.09;;;35.79;41.72
18749;BME280;9503;53.560;10.246;2023-06-19T10:11:48;100464.63;;;35.46;42.57
18749;BME280;9503;53.560;10.246;2023-06-19T10:14:16;100465.72;;;35.57;42.29
18749;BME280;9503;53.560;10.246;2023-06-19T10:16:44;100469.81;;;35.93;41.62
18749;BME280;9503;53.560;10.246;2023-06-19T10:19:14;100468.16;;;36.19;42.11
18749;BME280;9503;53.560;10.246;2023-06-19T10:21:46;100462.16;;;36.58;41.02
18749;BME280;9503;53.560;10.246;2023-06-19T10:24:17;100470.25;;;36.98;40.88
18749;BME280;9503;53.560;10.246;2023-06-19T10:26:57;100468.94;;;36.91;40.88
18749;BME280;9503;53.560;10.246;2023-06-19T10:29:25;100466.03;;;37.21;40.35
18749;BME280;9503;53.560;10.246;2023-06-19T10:31:53;100462.59;;;37.06;40.29
18749;BME280;9503;53.560;10.246;2023-06-19T10:34:19;100458.97;;;36.66;40.62
18749;BME280;9503;53.560;10.246;2023-06-19T10:36:46;100463.16;;;37.11;40.30
18749;BME280;9503;53.560;10.246;2023-06-19T10:39:12;100461.97;;;37.15;40.26
18749;BME280;9503;53.560;10.246;2023-06-19T10:41:41;100456.09;;;37.10;39.70
18749;BME280;9503;53.560;10.246;2023-06-19T10:44:09;100459.28;;;37.15;39.82
18749;BME280;9503;53.560;10.246;2023-06-19T10:46:38;100455.25;;;37.62;39.28
18749;BME280;9503;53.560;10.246;2023-06-19T10:49:06;100464.41;;;37.45;39.85
18749;BME280;9503;53.560;10.246;2023-06-19T10:51:36;100466.25;;;36.35;41.19
18749;BME280;9503;53.560;10.246;2023-06-19T10:54:03;100451.97;;;36.36;41.05
18749;BME280;9503;53.560;10.246;2023-06-19T10:56:30;100465.66;;;36.73;40.65
18749;BME280;9503;53.560;10.246;2023-06-19T10:58:58;100457.94;;;37.87;39.67
18749;BME280;9503;53.560;10.246;2023-06-19T11:01:33;100462.31;;;37.88;39.95
18749;BME280;9503;53.560;10.246;2023-06-19T11:04:03;100466.88;;;38.50;38.30
18749;BME280;9503;53.560;10.246;2023-06-19T11:06:30;100461.22;;;37.13;39.86
18749;BME280;9503;53.560;10.246;2023-06-19T11:08:57;100467.75;;;37.49;39.82
18749;BME280;9503;53.560;10.246;2023-06-19T11:11:34;100461.38;;;38.64;39.27
18749;BME280;9503;53.560;10.246;2023-06-19T11:14:02;100455.16;;;38.27;38.76
18749;BME280;9503;53.560;10.246;2023-06-19T11:16:28;100454.09;;;38.90;38.64
18749;BME280;9503;53.560;10.246;2023-06-19T11:18:57;100449.22;;;37.46;38.78
18749;BME280;9503;53.560;10.246;2023-06-19T11:21:29;100444.97;;;38.07;38.57
18749;BME280;9503;53.560;10.246;2023-06-19T11:23:58;100441.94;;;38.37;38.47
18749;BME280;9503;53.560;10.246;2023-06-19T11:26:25;100447.00;;;38.03;38.26
18749;BME280;9503;53.560;10.246;2023-06-19T11:28:52;100439.94;;;37.64;38.71
18749;BME280;9503;53.560;10.246;2023-06-19T11:31:24;100440.41;;;36.91;39.74
18749;BME280;9503;53.560;10.246;2023-06-19T11:33:57;100441.28;;;37.44;38.75
18749;BME280;9503;53.560;10.246;2023-06-19T11:36:24;100448.44;;;38.46;37.81
18749;BME280;9503;53.560;10.246;2023-06-19T11:38:51;100444.56;;;37.87;38.60
18749;BME280;9503;53.560;10.246;2023-06-19T11:41:25;100440.34;;;38.95;37.43
18749;BME280;9503;53.560;10.246;2023-06-19T11:43:58;100449.25;;;39.19;37.12
18749;BME280;9503;53.560;10.246;2023-06-19T11:46:29;100448.97;;;38.51;37.80
18749;BME280;9503;53.560;10.246;2023-06-19T11:49:07;100442.69;;;38.39;38.06
18749;BME280;9503;53.560;10.246;2023-06-19T11:51:33;100450.00;;;37.21;38.58
18749;BME280;9503;53.560;10.246;2023-06-19T11:54:00;100450.00;;;36.67;39.98
18749;BME280;9503;53.560;10.246;2023-06-19T11:56:27;100447.16;;;35.56;41.47
18749;BME280;9503;53.560;10.246;2023-06-19T11:58:54;100448.34;;;36.51;40.70
18749;BME280;9503;53.560;10.246;2023-06-19T12:01:21;100443.50;;;37.25;40.13
18749;BME280;9503;53.560;10.246;2023-06-19T12:03:47;100442.78;;;38.37;39.55
18749;BME280;9503;53.560;10.246;2023-06-19T12:06:16;100441.06;;;39.21;38.60
18749;BME280;9503;53.560;10.246;2023-06-19T12:08:44;100444.78;;;39.42;38.06
18749;BME280;9503;53.560;10.246;2023-06-19T12:11:10;100435.16;;;38.44;38.35
18749;BME280;9503;53.560;10.246;2023-06-19T12:13:38;100438.84;;;39.15;37.08
18749;BME280;9503;53.560;10.246;2023-06-19T12:16:05;100438.78;;;39.85;36.96
18749;BME280;9503;53.560;10.246;2023-06-19T12:18:31;100433.66;;;39.60;36.89
18749;BME280;9503;53.560;10.246;2023-06-19T12:20:58;100442.28;;;39.17;36.39
18749;BME280;9503;53.560;10.246;2023-06-19T12:23:26;100434.13;;;37.57;38.58
18749;BME280;9503;53.560;10.246;2023-06-19T12:25:53;100434.78;;;37.74;38.18
18749;BME280;9503;53.560;10.246;2023-06-19T12:28:19;100432.53;;;37.68;38.74
18749;BME280;9503;53.560;10.246;2023-06-19T12:30:47;100441.91;;;36.95;39.49
18749;BME280;9503;53.560;10.246;2023-06-19T12:33:16;100443.38;;;37.26;39.13
18749;BME280;9503;53.560;10.246;2023-06-19T12:35:43;100438.59;;;36.36;40.00
18749;BME280;9503;53.560;10.246;2023-06-19T12:38:10;100443.81;;;36.93;39.90
18749;BME280;9503;53.560;10.246;2023-06-19T12:40:38;100438.16;;;36.01;40.45
18749;BME280;9503;53.560;10.246;2023-06-19T12:43:05;100444.72;;;36.38;40.90
18749;BME280;9503;53.560;10.246;2023-06-19T12:45:32;100442.50;;;36.86;39.78
18749;BME280;9503;53.560;10.246;2023-06-19T12:47:58;100441.28;;;36.77;40.39
18749;BME280;9503;53.560;10.246;2023-06-19T12:50:25;100446.31;;;36.82;40.68
18749;BME280;9503;53.560;10.246;2023-06-19T12:52:52;100440.97;;;37.36;39.42